Terminal Aerodrome Forecast
Issued by NWS

Home | Current Version | Previous Version | Text Only | Print | Product List | Glossary On
Versions: 1 2 3 4 5 6 7 8 9 10 11 12 13 14
000
FTUS42 KGSP 030530
TAFGMU
TAF
KGMU 030530Z 0306/0406 00000KT P6SM BKN090
     FM031500 21006KT P6SM SCT060
     FM032100 21008KT P6SM BKN060
     FM040400 19003KT P6SM FEW060 BKN250=

USA.gov is the U.S. government's official web portal to all federal, state and local government web resources and services.